sensor_id;sensor_type;location;lat;lon;timestamp;temperature;humidity
19435;DHT22;9853;50.848;4.108;2023-09-19T00:03:22;15.90;99.90
19435;DHT22;9853;50.848;4.108;2023-09-19T00:08:27;16.00;99.90
19435;DHT22;9853;50.848;4.108;2023-09-19T00:14:08;15.90;99.90
19435;DHT22;9853;50.848;4.108;2023-09-19T00:16:54;16.10;99.90
19435;DHT22;9853;50.848;4.108;2023-09-19T00:19:12;16.00;99.90
19435;DHT22;9853;50.848;4.108;2023-09-19T00:21:16;16.10;99.90
19435;DHT22;9853;50.848;4.108;2023-09-19T00:23:49;16.00;99.90
19435;DHT22;9853;50.848;4.108;2023-09-19T00:26:30;16.00;99.90
19435;DHT22;9853;50.848;4.108;2023-09-19T00:29:21;16.00;99.90
19435;DHT22;9853;50.848;4.108;2023-09-19T00:34:38;15.90;99.90
19435;DHT22;9853;50.848;4.108;2023-09-19T00:37:03;15.90;99.90
19435;DHT22;9853;50.848;4.108;2023-09-19T00:40:06;15.80;99.90
19435;DHT22;9853;50.848;4.108;2023-09-19T00:42:27;15.70;99.90
19435;DHT22;9853;50.848;4.108;2023-09-19T00:45:10;15.70;99.90
19435;DHT22;9853;50.848;4.108;2023-09-19T00:47:20;15.80;99.90
19435;DHT22;9853;50.848;4.108;2023-09-19T00:49:27;15.90;99.90
19435;DHT22;9853;50.848;4.108;2023-09-19T00:52:10;16.00;99.90
19435;DHT22;9853;50.848;4.108;2023-09-19T00:54:27;16.00;99.90
19435;DHT22;9853;50.848;4.108;2023-09-19T00:56:34;15.90;99.90
19435;DHT22;9853;50.848;4.108;2023-09-19T00:58:51;15.80;99.90
19435;DHT22;9853;50.848;4.108;2023-09-19T01:01:21;15.90;99.90
19435;DHT22;9853;50.848;4.108;2023-09-19T01:06:45;15.90;99.90
19435;DHT22;9853;50.848;4.108;2023-09-19T01:09:07;15.80;99.90
19435;DHT22;9853;50.848;4.108;2023-09-19T01:11:15;15.80;99.90
19435;DHT22;9853;50.848;4.108;2023-09-19T01:16:35;15.70;99.90
19435;DHT22;9853;50.848;4.108;2023-09-19T01:29:49;15.70;99.90
19435;DHT22;9853;50.848;4.108;2023-09-19T01:32:04;15.60;99.90
19435;DHT22;9853;50.848;4.108;2023-09-19T01:34:06;15.70;99.90
19435;DHT22;9853;50.848;4.108;2023-09-19T01:36:11;15.70;99.90
19435;DHT22;9853;50.848;4.108;2023-09-19T01:38:14;15.80;99.90
19435;DHT22;9853;50.848;4.108;2023-09-19T01:40:18;15.70;99.90
19435;DHT22;9853;50.848;4.108;2023-09-19T01:47:51;15.80;99.90
19435;DHT22;9853;50.848;4.108;2023-09-19T01:50:31;15.70;99.90
19435;DHT22;9853;50.848;4.108;2023-09-19T01:58:58;15.70;99.90
19435;DHT22;9853;50.848;4.108;2023-09-19T02:03:59;15.60;99.90
19435;DHT22;9853;50.848;4.108;2023-09-19T02:06:05;15.70;99.90
19435;DHT22;9853;50.848;4.108;2023-09-19T02:08:31;15.80;99.90
19435;DHT22;9853;50.848;4.108;2023-09-19T02:11:11;15.90;99.90
19435;DHT22;9853;50.848;4.108;2023-09-19T02:13:25;15.90;99.90
19435;DHT22;9853;50.848;4.108;2023-09-19T02:16:36;16.00;99.90
19435;DHT22;9853;50.848;4.108;2023-09-19T02:19:04;15.80;99.90
19435;DHT22;9853;50.848;4.108;2023-09-19T02:21:31;16.00;99.90
19435;DHT22;9853;50.848;4.108;2023-09-19T02:23:50;16.00;99.90
19435;DHT22;9853;50.848;4.108;2023-09-19T02:26:32;16.00;99.90
19435;DHT22;9853;50.848;4.108;2023-09-19T02:31:28;16.00;99.90
19435;DHT22;9853;50.848;4.108;2023-09-19T02:33:55;15.80;99.90
19435;DHT22;9853;50.848;4.108;2023-09-19T02:39:39;16.00;99.90
19435;DHT22;9853;50.848;4.108;2023-09-19T02:42:25;15.80;99.90
19435;DHT22;9853;50.848;4.108;2023-09-19T02:47:00;15.70;99.90
19435;DHT22;9853;50.848;4.108;2023-09-19T02:49:19;15.70;99.90
19435;DHT22;9853;50.848;4.108;2023-09-19T02:55:12;15.70;99.90
19435;DHT22;9853;50.848;4.108;2023-09-19T02:57:47;15.40;99.90
19435;DHT22;9853;50.848;4.108;2023-09-19T03:03:11;15.60;99.90
19435;DHT22;9853;50.848;4.108;2023-09-19T03:08:36;15.70;99.90
19435;DHT22;9853;50.848;4.108;2023-09-19T03:11:24;15.50;99.90
19435;DHT22;9853;50.848;4.108;2023-09-19T03:14:06;15.40;99.90
19435;DHT22;9853;50.848;4.108;2023-09-19T03:16:11;15.20;99.90
19435;DHT22;9853;50.848;4.108;2023-09-19T03:18:41;15.20;99.90
19435;DHT22;9853;50.848;4.108;2023-09-19T03:20:58;15.30;99.90
19435;DHT22;9853;50.848;4.108;2023-09-19T03:23:54;15.40;99.90
19435;DHT22;9853;50.848;4.108;2023-09-19T03:29:33;15.30;99.90
19435;DHT22;9853;50.848;4.108;2023-09-19T03:35:13;15.10;99.90
19435;DHT22;9853;50.848;4.108;2023-09-19T03:37:40;15.10;99.90
19435;DHT22;9853;50.848;4.108;2023-09-19T03:43:33;15.00;99.90
19435;DHT22;9853;50.848;4.108;2023-09-19T03:49:03;15.10;99.90
19435;DHT22;9853;50.848;4.108;2023-09-19T03:51:20;15.00;99.90
19435;DHT22;9853;50.848;4.108;2023-09-19T03:54:29;14.90;99.90
19435;DHT22;9853;50.848;4.108;2023-09-19T03:57:04;15.10;99.90
19435;DHT22;9853;50.848;4.108;2023-09-19T04:00:06;15.00;99.90
19435;DHT22;9853;50.848;4.108;2023-09-19T04:02:47;15.00;99.90
19435;DHT22;9853;50.848;4.108;2023-09-19T04:05:16;14.90;99.90
19435;DHT22;9853;50.848;4.108;2023-09-19T04:08:37;14.90;99.90
19435;DHT22;9853;50.848;4.108;2023-09-19T04:11:24;14.80;99.90
19435;DHT22;9853;50.848;4.108;2023-09-19T04:13:38;14.70;99.90
19435;DHT22;9853;50.848;4.108;2023-09-19T04:16:17;14.80;99.90
19435;DHT22;9853;50.848;4.108;2023-09-19T04:18:32;14.80;99.90
19435;DHT22;9853;50.848;4.108;2023-09-19T04:21:20;14.80;99.90
19435;DHT22;9853;50.848;4.108;2023-09-19T04:24:26;14.70;99.90
19435;DHT22;9853;50.848;4.108;2023-09-19T04:29:39;14.70;99.90
19435;DHT22;9853;50.848;4.108;2023-09-19T04:38:33;14.70;99.90
19435;DHT22;9853;50.848;4.108;2023-09-19T04:40:39;14.60;99.90
19435;DHT22;9853;50.848;4.108;2023-09-19T04:43:00;14.60;99.90
19435;DHT22;9853;50.848;4.108;2023-09-19T04:45:45;14.70;99.90
19435;DHT22;9853;50.848;4.108;2023-09-19T04:48:40;14.80;99.90
19435;DHT22;9853;50.848;4.108;2023-09-19T04:50:54;14.80;99.90
19435;DHT22;9853;50.848;4.108;2023-09-19T04:53:50;14.70;99.90
19435;DHT22;9853;50.848;4.108;2023-09-19T04:56:15;14.70;99.90
19435;DHT22;9853;50.848;4.108;2023-09-19T04:58:35;14.80;99.90
19435;DHT22;9853;50.848;4.108;2023-09-19T05:03:32;14.70;99.90
19435;DHT22;9853;50.848;4.108;2023-09-19T05:05:45;14.80;99.90
19435;DHT22;9853;50.848;4.108;2023-09-19T05:08:23;14.80;99.90
19435;DHT22;9853;50.848;4.108;2023-09-19T05:11:09;14.70;99.90
19435;DHT22;9853;50.848;4.108;2023-09-19T05:14:10;14.70;99.90
19435;DHT22;9853;50.848;4.108;2023-09-19T05:22:36;14.90;99.90
19435;DHT22;9853;50.848;4.108;2023-09-19T05:25:10;14.90;99.90
19435;DHT22;9853;50.848;4.108;2023-09-19T05:30:02;15.20;99.90
19435;DHT22;9853;50.848;4.108;2023-09-19T05:32:34;15.20;99.90
19435;DHT22;9853;50.848;4.108;2023-09-19T05:35:01;15.10;99.90
19435;DHT22;9853;50.848;4.108;2023-09-19T05:40:13;14.90;99.90
19435;DHT22;9853;50.848;4.108;2023-09-19T05:42:36;15.00;99.90
19435;DHT22;9853;50.848;4.108;2023-09-19T05:45:09;15.00;99.90
19435;DHT22;9853;50.848;4.108;2023-09-19T05:47:22;15.00;99.90
19435;DHT22;9853;50.848;4.108;2023-09-19T05:49:27;14.90;99.90
19435;DHT22;9853;50.848;4.108;2023-09-19T05:53:58;14.90;99.90
19435;DHT22;9853;50.848;4.108;2023-09-19T05:56:04;14.80;99.90
19435;DHT22;9853;50.848;4.108;2023-09-19T05:58:45;14.70;99.90
19435;DHT22;9853;50.848;4.108;2023-09-19T06:01:26;14.80;99.90
19435;DHT22;9853;50.848;4.108;2023-09-19T06:03:40;14.90;99.90
19435;DHT22;9853;50.848;4.108;2023-09-19T06:06:23;14.90;99.90
19435;DHT22;9853;50.848;4.108;2023-09-19T06:08:49;15.00;99.90
19435;DHT22;9853;50.848;4.108;2023-09-19T06:13:40;14.90;99.90
19435;DHT22;9853;50.848;4.108;2023-09-19T06:15:53;15.10;99.90
19435;DHT22;9853;50.848;4.108;2023-09-19T06:18:11;15.10;99.90
19435;DHT22;9853;50.848;4.108;2023-09-19T06:27:17;15.30;99.90
19435;DHT22;9853;50.848;4.108;2023-09-19T06:30:22;15.40;99.90
19435;DHT22;9853;50.848;4.108;2023-09-19T06:32:31;15.60;99.90
19435;DHT22;9853;50.848;4.108;2023-09-19T06:37:45;15.70;99.90
19435;DHT22;9853;50.848;4.108;2023-09-19T06:39:49;15.60;99.90
19435;DHT22;9853;50.848;4.108;2023-09-19T06:41:51;15.50;99.90
19435;DHT22;9853;50.848;4.108;2023-09-19T06:44:29;15.70;99.90
19435;DHT22;9853;50.848;4.108;2023-09-19T06:47:04;15.60;99.90
19435;DHT22;9853;50.848;4.108;2023-09-19T06:49:33;15.70;99.90
19435;DHT22;9853;50.848;4.108;2023-09-19T06:51:47;15.80;99.90
19435;DHT22;9853;50.848;4.108;2023-09-19T06:54:13;15.80;99.90
19435;DHT22;9853;50.848;4.108;2023-09-19T06:56:57;16.20;99.90
19435;DHT22;9853;50.848;4.108;2023-09-19T07:02:30;16.40;99.90
19435;DHT22;9853;50.848;4.108;2023-09-19T07:05:13;16.70;99.90
19435;DHT22;9853;50.848;4.108;2023-09-19T07:07:40;16.90;99.90
19435;DHT22;9853;50.848;4.108;2023-09-19T07:10:33;17.30;99.90
19435;DHT22;9853;50.848;4.108;2023-09-19T07:18:13;18.80;99.90
19435;DHT22;9853;50.848;4.108;2023-09-19T07:23:26;19.00;99.90
19435;DHT22;9853;50.848;4.108;2023-09-19T07:25:50;19.40;99.90
19435;DHT22;9853;50.848;4.108;2023-09-19T07:28:30;19.30;99.90
19435;DHT22;9853;50.848;4.108;2023-09-19T07:34:18;19.70;99.90
19435;DHT22;9853;50.848;4.108;2023-09-19T07:36:51;20.20;99.90
19435;DHT22;9853;50.848;4.108;2023-09-19T07:39:51;19.90;99.90
19435;DHT22;9853;50.848;4.108;2023-09-19T07:42:39;20.10;99.90
19435;DHT22;9853;50.848;4.108;2023-09-19T07:45:21;20.10;99.90
19435;DHT22;9853;50.848;4.108;2023-09-19T07:51:01;20.50;99.90
19435;DHT22;9853;50.848;4.108;2023-09-19T07:56:21;20.50;99.90
19435;DHT22;9853;50.848;4.108;2023-09-19T07:58:45;20.40;99.90
19435;DHT22;9853;50.848;4.108;2023-09-19T08:00:49;20.00;99.90
19435;DHT22;9853;50.848;4.108;2023-09-19T08:03:02;20.20;99.90
19435;DHT22;9853;50.848;4.108;2023-09-19T08:05:20;20.50;99.90
19435;DHT22;9853;50.848;4.108;2023-09-19T08:07:37;21.00;99.90
19435;DHT22;9853;50.848;4.108;2023-09-19T08:10:02;21.10;99.90
19435;DHT22;9853;50.848;4.108;2023-09-19T08:12:38;21.60;99.90
19435;DHT22;9853;50.848;4.108;2023-09-19T08:17:35;21.10;99.90
19435;DHT22;9853;50.848;4.108;2023-09-19T08:19:36;21.50;99.90
19435;DHT22;9853;50.848;4.108;2023-09-19T08:22:00;21.30;99.90
19435;DHT22;9853;50.848;4.108;2023-09-19T08:24:06;21.40;99.90
19435;DHT22;9853;50.848;4.108;2023-09-19T08:26:09;21.60;99.90
19435;DHT22;9853;50.848;4.108;2023-09-19T08:28:10;21.80;99.90
19435;DHT22;9853;50.848;4.108;2023-09-19T08:30:13;21.90;99.90
19435;DHT22;9853;50.848;4.108;2023-09-19T08:32:15;22.00;99.90
19435;DHT22;9853;50.848;4.108;2023-09-19T08:34:16;21.80;99.90
19435;DHT22;9853;50.848;4.108;2023-09-19T08:36:17;21.50;99.90
19435;DHT22;9853;50.848;4.108;2023-09-19T08:38:18;21.30;99.90
19435;DHT22;9853;50.848;4.108;2023-09-19T08:40:18;21.40;99.90
19435;DHT22;9853;50.848;4.108;2023-09-19T08:42:20;21.60;99.90
19435;DHT22;9853;50.848;4.108;2023-09-19T08:44:21;21.60;99.90
19435;DHT22;9853;50.848;4.108;2023-09-19T08:46:25;21.50;99.90
19435;DHT22;9853;50.848;4.108;2023-09-19T08:48:27;21.20;99.90
19435;DHT22;9853;50.848;4.108;2023-09-19T08:50:29;21.10;99.90
19435;DHT22;9853;50.848;4.108;2023-09-19T08:52:42;21.10;99.90
19435;DHT22;9853;50.848;4.108;2023-09-19T08:54:44;21.00;99.90
19435;DHT22;9853;50.848;4.108;2023-09-19T08:56:46;20.90;99.90
19435;DHT22;9853;50.848;4.108;2023-09-19T08:58:53;21.10;99.90
19435;DHT22;9853;50.848;4.108;2023-09-19T09:00:55;21.70;99.90
19435;DHT22;9853;50.848;4.108;2023-09-19T09:02:58;21.90;99.90
19435;DHT22;9853;50.848;4.108;2023-09-19T09:05:00;21.30;99.90
19435;DHT22;9853;50.848;4.108;2023-09-19T09:07:02;21.40;99.90
19435;DHT22;9853;50.848;4.108;2023-09-19T09:09:04;21.20;99.90
19435;DHT22;9853;50.848;4.108;2023-09-19T09:11:06;20.80;99.90
19435;DHT22;9853;50.848;4.108;2023-09-19T09:13:09;20.70;99.90
19435;DHT22;9853;50.848;4.108;2023-09-19T09:15:10;20.50;99.90
19435;DHT22;9853;50.848;4.108;2023-09-19T09:17:17;20.30;99.90
19435;DHT22;9853;50.848;4.108;2023-09-19T09:19:21;20.30;99.90
19435;DHT22;9853;50.848;4.108;2023-09-19T09:21:25;20.30;99.90
19435;DHT22;9853;50.848;4.108;2023-09-19T09:23:27;20.30;99.90
19435;DHT22;9853;50.848;4.108;2023-09-19T09:25:53;20.10;99.90
19435;DHT22;9853;50.848;4.108;2023-09-19T09:28:01;20.40;99.90
19435;DHT22;9853;50.848;4.108;2023-09-19T09:30:02;20.10;99.90
19435;DHT22;9853;50.848;4.108;2023-09-19T09:32:23;20.10;99.90
19435;DHT22;9853;50.848;4.108;2023-09-19T09:34:32;20.30;99.90
19435;DHT22;9853;50.848;4.108;2023-09-19T09:36:37;20.40;99.90
19435;DHT22;9853;50.848;4.108;2023-09-19T09:38:46;20.30;99.90
19435;DHT22;9853;50.848;4.108;2023-09-19T09:40:50;20.00;99.90
19435;DHT22;9853;50.848;4.108;2023-09-19T09:42:59;19.70;99.90
19435;DHT22;9853;50.848;4.108;2023-09-19T09:45:13;19.50;99.90
19435;DHT22;9853;50.848;4.108;2023-09-19T09:47:15;19.30;99.90
19435;DHT22;9853;50.848;4.108;2023-09-19T09:49:37;19.30;99.90
19435;DHT22;9853;50.848;4.108;2023-09-19T09:51:40;19.40;99.90
19435;DHT22;9853;50.848;4.108;2023-09-19T09:53:43;19.30;99.90
19435;DHT22;9853;50.848;4.108;2023-09-19T09:56:05;19.30;99.90
19435;DHT22;9853;50.848;4.108;2023-09-19T09:58:18;19.30;99.90
19435;DHT22;9853;50.848;4.108;2023-09-19T10:00:19;19.30;99.90
19435;DHT22;9853;50.848;4.108;2023-09-19T10:02:35;19.40;99.90
19435;DHT22;9853;50.848;4.108;2023-09-19T10:04:41;19.40;99.90
19435;DHT22;9853;50.848;4.108;2023-09-19T10:06:52;19.30;99.90
19435;DHT22;9853;50.848;4.108;2023-09-19T10:09:03;19.40;99.90
19435;DHT22;9853;50.848;4.108;2023-09-19T10:11:30;19.70;99.90
19435;DHT22;9853;50.848;4.108;2023-09-19T10:13:31;19.70;99.90
19435;DHT22;9853;50.848;4.108;2023-09-19T10:15:36;19.70;99.90
19435;DHT22;9853;50.848;4.108;2023-09-19T10:17:39;19.70;99.90
19435;DHT22;9853;50.848;4.108;2023-09-19T10:19:55;19.80;99.90
19435;DHT22;9853;50.848;4.108;2023-09-19T10:21:58;19.90;99.90
19435;DHT22;9853;50.848;4.108;2023-09-19T10:24:00;20.10;99.90
19435;DHT22;9853;50.848;4.108;2023-09-19T10:26:05;20.30;99.90
19435;DHT22;9853;50.848;4.108;2023-09-19T10:28:08;20.20;99.90
19435;DHT22;9853;50.848;4.108;2023-09-19T10:30:14;20.40;99.90
19435;DHT22;9853;50.848;4.108;2023-09-19T10:32:16;20.60;99.90
19435;DHT22;9853;50.848;4.108;2023-09-19T10:34:20;20.60;99.90
19435;DHT22;9853;50.848;4.108;2023-09-19T10:36:26;20.80;99.90
19435;DHT22;9853;50.848;4.108;2023-09-19T10:38:31;20.90;99.90
19435;DHT22;9853;50.848;4.108;2023-09-19T10:40:34;20.90;99.90
19435;DHT22;9853;50.848;4.108;2023-09-19T10:42:38;21.00;99.90
19435;DHT22;9853;50.848;4.108;2023-09-19T10:44:41;20.90;99.90
19435;DHT22;9853;50.848;4.108;2023-09-19T10:46:44;20.70;99.90
19435;DHT22;9853;50.848;4.108;2023-09-19T10:48:46;20.80;99.90
19435;DHT22;9853;50.848;4.108;2023-09-19T10:51:07;20.80;99.90
19435;DHT22;9853;50.848;4.108;2023-09-19T10:53:10;20.80;99.90
19435;DHT22;9853;50.848;4.108;2023-09-19T10:55:16;20.70;99.90
19435;DHT22;9853;50.848;4.108;2023-09-19T10:57:22;20.70;99.90
19435;DHT22;9853;50.848;4.108;2023-09-19T10:59:28;20.50;99.90
19435;DHT22;9853;50.848;4.108;2023-09-19T11:01:46;20.70;99.90
19435;DHT22;9853;50.848;4.108;2023-09-19T11:06:42;21.00;99.90
19435;DHT22;9853;50.848;4.108;2023-09-19T11:09:02;20.90;99.90
19435;DHT22;9853;50.848;4.108;2023-09-19T11:11:44;20.80;99.90
19435;DHT22;9853;50.848;4.108;2023-09-19T11:16:26;20.60;99.90
19435;DHT22;9853;50.848;4.108;2023-09-19T11:20:42;20.80;99.90
19435;DHT22;9853;50.848;4.108;2023-09-19T11:24:51;21.10;99.90
19435;DHT22;9853;50.848;4.108;2023-09-19T11:27:12;21.00;99.90
19435;DHT22;9853;50.848;4.108;2023-09-19T11:29:29;20.90;99.90
19435;DHT22;9853;50.848;4.108;2023-09-19T11:31:43;20.50;99.90
19435;DHT22;9853;50.848;4.108;2023-09-19T11:33:45;20.40;99.90
19435;DHT22;9853;50.848;4.108;2023-09-19T11:36:06;20.30;99.90
19435;DHT22;9853;50.848;4.108;2023-09-19T11:38:08;20.10;99.90
19435;DHT22;9853;50.848;4.108;2023-09-19T11:40:12;20.20;99.90
19435;DHT22;9853;50.848;4.108;2023-09-19T11:42:41;20.20;99.90
19435;DHT22;9853;50.848;4.108;2023-09-19T11:44:42;20.40;99.90
19435;DHT22;9853;50.848;4.108;2023-09-19T11:46:54;20.60;99.90
19435;DHT22;9853;50.848;4.108;2023-09-19T11:49:05;20.50;99.90
19435;DHT22;9853;50.848;4.108;2023-09-19T11:51:20;20.60;99.90
19435;DHT22;9853;50.848;4.108;2023-09-19T11:53:31;20.70;99.90
19435;DHT22;9853;50.848;4.108;2023-09-19T11:55:34;20.80;99.90
19435;DHT22;9853;50.848;4.108;2023-09-19T11:57:35;20.50;99.90
19435;DHT22;9853;50.848;4.108;2023-09-19T11:59:38;20.70;99.90
19435;DHT22;9853;50.848;4.108;2023-09-19T12:01:51;21.10;99.90
19435;DHT22;9853;50.848;4.108;2023-09-19T12:04:00;21.20;99.90
19435;DHT22;9853;50.848;4.108;2023-09-19T12:06:11;21.20;99.90
19435;DHT22;9853;50.848;4.108;2023-09-19T12:08:15;21.10;99.90
19435;DHT22;9853;50.848;4.108;2023-09-19T12:10:17;21.00;99.90
19435;DHT22;9853;50.848;4.108;2023-09-19T12:12:27;21.20;99.90
19435;DHT22;9853;50.848;4.108;2023-09-19T12:14:28;21.40;99.90
19435;DHT22;9853;50.848;4.108;2023-09-19T12:16:29;21.50;99.90
19435;DHT22;9853;50.848;4.108;2023-09-19T12:18:33;21.40;99.90
19435;DHT22;9853;50.848;4.108;2023-09-19T12:20:43;21.10;99.90
19435;DHT22;9853;50.848;4.108;2023-09-19T12:22:47;20.80;99.90
19435;DHT22;9853;50.848;4.108;2023-09-19T12:24:50;20.80;99.90
19435;DHT22;9853;50.848;4.108;2023-09-19T12:26:51;20.70;99.90
19435;DHT22;9853;50.848;4.108;2023-09-19T12:28:53;20.60;99.90
19435;DHT22;9853;50.848;4.108;2023-09-19T12:30:54;20.50;99.90
19435;DHT22;9853;50.848;4.108;2023-09-19T12:32:58;20.70;99.90
19435;DHT22;9853;50.848;4.108;2023-09-19T12:34:59;20.90;99.90
19435;DHT22;9853;50.848;4.108;2023-09-19T12:37:10;20.90;99.90
19435;DHT22;9853;50.848;4.108;2023-09-19T12:39:27;20.80;99.90
19435;DHT22;9853;50.848;4.108;2023-09-19T12:41:30;21.00;99.90
19435;DHT22;9853;50.848;4.108;2023-09-19T12:43:34;21.10;99.90
19435;DHT22;9853;50.848;4.108;2023-09-19T12:45:37;21.20;99.90
19435;DHT22;9853;50.848;4.108;2023-09-19T12:47:39;21.20;99.90
19435;DHT22;9853;50.848;4.108;2023-09-19T12:52:13;21.20;99.90
19435;DHT22;9853;50.848;4.108;2023-09-19T12:54:14;21.30;99.90
19435;DHT22;9853;50.848;4.108;2023-09-19T12:56:17;21.30;99.90
19435;DHT22;9853;50.848;4.108;2023-09-19T12:58:18;21.50;99.90
19435;DHT22;9853;50.848;4.108;2023-09-19T13:00:19;21.30;99.90
19435;DHT22;9853;50.848;4.108;2023-09-19T13:02:24;21.20;99.90
19435;DHT22;9853;50.848;4.108;2023-09-19T13:04:26;21.20;99.90
19435;DHT22;9853;50.848;4.108;2023-09-19T13:06:37;21.20;99.90
19435;DHT22;9853;50.848;4.108;2023-09-19T13:08:43;21.30;99.90
19435;DHT22;9853;50.848;4.108;2023-09-19T13:11:12;21.10;99.90
19435;DHT22;9853;50.848;4.108;2023-09-19T13:13:25;21.20;99.90
19435;DHT22;9853;50.848;4.108;2023-09-19T13:15:28;21.20;99.90
19435;DHT22;9853;50.848;4.108;2023-09-19T13:17:43;21.30;99.90
19435;DHT22;9853;50.848;4.108;2023-09-19T13:19:45;21.40;99.90
19435;DHT22;9853;50.848;4.108;2023-09-19T13:21:49;21.40;99.90
19435;DHT22;9853;50.848;4.108;2023-09-19T13:23:53;21.40;99.90
19435;DHT22;9853;50.848;4.108;2023-09-19T13:25:55;21.40;99.90
19435;DHT22;9853;50.848;4.108;2023-09-19T13:27:57;21.70;99.90
19435;DHT22;9853;50.848;4.108;2023-09-19T13:29:59;21.90;99.90
19435;DHT22;9853;50.848;4.108;2023-09-19T13:32:01;22.00;99.90
19435;DHT22;9853;50.848;4.108;2023-09-19T13:34:02;22.00;99.90
19435;DHT22;9853;50.848;4.108;2023-09-19T13:36:04;21.80;99.90
19435;DHT22;9853;50.848;4.108;2023-09-19T13:38:05;21.70;99.90
19435;DHT22;9853;50.848;4.108;2023-09-19T13:40:11;21.60;99.90
19435;DHT22;9853;50.848;4.108;2023-09-19T13:42:12;21.60;99.90
19435;DHT22;9853;50.848;4.108;2023-09-19T13:44:13;21.50;99.90
19435;DHT22;9853;50.848;4.108;2023-09-19T13:46:14;21.40;99.90
19435;DHT22;9853;50.848;4.108;2023-09-19T13:48:16;21.20;99.90
19435;DHT22;9853;50.848;4.108;2023-09-19T13:50:22;21.30;99.90
19435;DHT22;9853;50.848;4.108;2023-09-19T13:52:32;21.30;99.90
19435;DHT22;9853;50.848;4.108;2023-09-19T13:54:33;21.10;99.90
19435;DHT22;9853;50.848;4.108;2023-09-19T13:56:34;21.00;99.90
19435;DHT22;9853;50.848;4.108;2023-09-19T13:58:34;21.00;99.90
19435;DHT22;9853;50.848;4.108;2023-09-19T14:00:35;21.10;99.90
19435;DHT22;9853;50.848;4.108;2023-09-19T14:02:36;21.10;99.90
19435;DHT22;9853;50.848;4.108;2023-09-19T14:04:37;21.10;99.90
19435;DHT22;9853;50.848;4.108;2023-09-19T14:06:41;20.90;99.90
19435;DHT22;9853;50.848;4.108;2023-09-19T14:08:43;20.80;99.90
19435;DHT22;9853;50.848;4.108;2023-09-19T14:10:47;20.90;99.90
19435;DHT22;9853;50.848;4.108;2023-09-19T14:12:48;20.80;99.90
19435;DHT22;9853;50.848;4.108;2023-09-19T14:14:49;21.00;99.90
19435;DHT22;9853;50.848;4.108;2023-09-19T14:16:51;21.00;99.90
19435;DHT22;9853;50.848;4.108;2023-09-19T14:18:55;21.00;99.90
19435;DHT22;9853;50.848;4.108;2023-09-19T14:20:56;21.10;99.90
19435;DHT22;9853;50.848;4.108;2023-09-19T14:22:57;21.10;99.90
19435;DHT22;9853;50.848;4.108;2023-09-19T14:25:04;21.00;99.90
19435;DHT22;9853;50.848;4.108;2023-09-19T14:27:05;20.90;99.90
19435;DHT22;9853;50.848;4.108;2023-09-19T14:29:07;21.00;99.90
19435;DHT22;9853;50.848;4.108;2023-09-19T14:31:09;21.00;99.90
19435;DHT22;9853;50.848;4.108;2023-09-19T14:33:10;21.00;99.90
19435;DHT22;9853;50.848;4.108;2023-09-19T14:35:11;20.90;99.90
19435;DHT22;9853;50.848;4.108;2023-09-19T14:37:11;20.90;99.90
19435;DHT22;9853;50.848;4.108;2023-09-19T14:39:12;21.10;99.90
19435;DHT22;9853;50.848;4.108;2023-09-19T14:41:13;21.30;99.90
19435;DHT22;9853;50.848;4.108;2023-09-19T14:43:14;21.10;99.90
19435;DHT22;9853;50.848;4.108;2023-09-19T14:45:14;20.90;99.90
19435;DHT22;9853;50.848;4.108;2023-09-19T14:47:18;20.80;99.90
19435;DHT22;9853;50.848;4.108;2023-09-19T14:49:19;20.80;99.90
19435;DHT22;9853;50.848;4.108;2023-09-19T14:51:20;20.70;99.90
19435;DHT22;9853;50.848;4.108;2023-09-19T14:53:21;20.60;99.90
19435;DHT22;9853;50.848;4.108;2023-09-19T14:55:22;20.50;99.90
19435;DHT22;9853;50.848;4.108;2023-09-19T14:57:23;20.30;99.90
19435;DHT22;9853;50.848;4.108;2023-09-19T14:59:24;20.30;99.90
19435;DHT22;9853;50.848;4.108;2023-09-19T15:01:25;20.30;99.90
19435;DHT22;9853;50.848;4.108;2023-09-19T15:03:26;20.30;99.90
19435;DHT22;9853;50.848;4.108;2023-09-19T15:05:27;20.30;99.90
19435;DHT22;9853;50.848;4.108;2023-09-19T15:07:30;20.20;99.90
19435;DHT22;9853;50.848;4.108;2023-09-19T15:09:31;20.20;99.90
19435;DHT22;9853;50.848;4.108;2023-09-19T15:11:33;20.10;99.90
19435;DHT22;9853;50.848;4.108;2023-09-19T15:13:35;20.10;99.90
19435;DHT22;9853;50.848;4.108;2023-09-19T15:15:35;20.00;99.90
19435;DHT22;9853;50.848;4.108;2023-09-19T15:17:36;19.90;99.90
19435;DHT22;9853;50.848;4.108;2023-09-19T15:19:37;19.90;99.90
19435;DHT22;9853;50.848;4.108;2023-09-19T15:21:38;19.90;99.90
19435;DHT22;9853;50.848;4.108;2023-09-19T15:23:42;19.80;99.90
19435;DHT22;9853;50.848;4.108;2023-09-19T15:25:48;19.80;99.90
19435;DHT22;9853;50.848;4.108;2023-09-19T15:27:49;19.80;99.90
19435;DHT22;9853;50.848;4.108;2023-09-19T15:29:50;19.70;99.90
19435;DHT22;9853;50.848;4.108;2023-09-19T15:31:51;19.90;99.90
19435;DHT22;9853;50.848;4.108;2023-09-19T15:33:52;19.80;99.90
19435;DHT22;9853;50.848;4.108;2023-09-19T15:35:52;19.90;99.90
19435;DHT22;9853;50.848;4.108;2023-09-19T15:38:00;19.90;99.90
19435;DHT22;9853;50.848;4.108;2023-09-19T15:40:01;19.90;99.90
19435;DHT22;9853;50.848;4.108;2023-09-19T15:42:01;20.00;99.90
19435;DHT22;9853;50.848;4.108;2023-09-19T15:44:03;20.00;99.90
19435;DHT22;9853;50.848;4.108;2023-09-19T15:46:04;20.00;99.90
19435;DHT22;9853;50.848;4.108;2023-09-19T15:48:05;20.10;99.90
19435;DHT22;9853;50.848;4.108;2023-09-19T15:50:06;20.10;99.90
19435;DHT22;9853;50.848;4.108;2023-09-19T15:52:09;19.80;99.90
19435;DHT22;9853;50.848;4.108;2023-09-19T15:54:14;19.70;99.90
19435;DHT22;9853;50.848;4.108;2023-09-19T15:56:19;19.70;99.90
19435;DHT22;9853;50.848;4.108;2023-09-19T15:58:23;19.80;99.90
19435;DHT22;9853;50.848;4.108;2023-09-19T16:00:24;19.90;99.90
19435;DHT22;9853;50.848;4.108;2023-09-19T16:02:24;19.90;99.90
19435;DHT22;9853;50.848;4.108;2023-09-19T16:04:28;19.90;99.90
19435;DHT22;9853;50.848;4.108;2023-09-19T16:06:30;19.80;99.90
19435;DHT22;9853;50.848;4.108;2023-09-19T16:08:31;19.90;99.90
19435;DHT22;9853;50.848;4.108;2023-09-19T16:10:36;20.00;99.90
19435;DHT22;9853;50.848;4.108;2023-09-19T16:12:38;20.00;99.90
19435;DHT22;9853;50.848;4.108;2023-09-19T16:14:39;20.00;99.90
19435;DHT22;9853;50.848;4.108;2023-09-19T16:16:40;19.90;99.90
19435;DHT22;9853;50.848;4.108;2023-09-19T16:20:49;19.80;99.90
19435;DHT22;9853;50.848;4.108;2023-09-19T16:22:50;19.70;99.90
19435;DHT22;9853;50.848;4.108;2023-09-19T16:24:51;19.80;99.90
19435;DHT22;9853;50.848;4.108;2023-09-19T16:26:52;19.90;99.90
19435;DHT22;9853;50.848;4.108;2023-09-19T16:28:54;19.90;99.90
19435;DHT22;9853;50.848;4.108;2023-09-19T16:31:01;19.70;99.90
19435;DHT22;9853;50.848;4.108;2023-09-19T16:33:05;19.70;99.90
19435;DHT22;9853;50.848;4.108;2023-09-19T16:35:06;19.80;99.90
19435;DHT22;9853;50.848;4.108;2023-09-19T16:37:08;19.80;99.90
19435;DHT22;9853;50.848;4.108;2023-09-19T16:39:09;19.80;99.90
19435;DHT22;9853;50.848;4.108;2023-09-19T16:41:11;19.90;99.90
19435;DHT22;9853;50.848;4.108;2023-09-19T16:43:13;19.90;99.90
19435;DHT22;9853;50.848;4.108;2023-09-19T16:45:14;19.90;99.90